createdAt,value
2022-10-08T00:01:17.527Z,79.00
2022-10-08T00:03:47.777Z,78.70
2022-10-08T00:06:24.098Z,79.10
2022-10-08T00:08:54.011Z,80.10
2022-10-08T00:11:47.576Z,79.10
2022-10-08T00:14:15.351Z,80.30
2022-10-08T00:16:42.753Z,79.70
2022-10-08T00:19:15.153Z,80.20
2022-10-08T00:21:44.478Z,79.80
2022-10-08T00:24:15.822Z,80.50
2022-10-08T00:26:44.453Z,79.80
2022-10-08T00:29:14.743Z,79.70
2022-10-08T00:31:44.395Z,80.10
2022-10-08T00:34:21.008Z,80.90
2022-10-08T00:36:52.139Z,81.00
2022-10-08T00:39:22.976Z,81.60
2022-10-08T00:41:54.549Z,80.70
2022-10-08T00:44:43.710Z,81.60
2022-10-08T00:47:25.800Z,80.60
2022-10-08T00:49:57.309Z,80.50
2022-10-08T00:52:28.496Z,81.00
2022-10-08T00:54:57.705Z,80.90
2022-10-08T00:57:26.993Z,81.40
2022-10-08T00:59:54.558Z,83.10
2022-10-08T01:02:22.068Z,81.90
2022-10-08T01:04:49.641Z,83.10
2022-10-08T01:07:33.634Z,82.80
2022-10-08T01:10:10.339Z,81.10
2022-10-08T01:12:47.245Z,82.20
2022-10-08T01:15:31.951Z,80.70
2022-10-08T01:18:11.302Z,81.00
2022-10-08T01:20:46.319Z,81.10
2022-10-08T01:23:35.416Z,81.20
2022-10-08T01:26:21.462Z,81.30
2022-10-08T01:28:59.989Z,82.20
2022-10-08T01:31:32.338Z,81.20
2022-10-08T01:34:18.931Z,81.90
2022-10-08T01:36:49.540Z,82.80
2022-10-08T01:39:19.997Z,82.00
2022-10-08T01:41:56.537Z,82.30
2022-10-08T01:44:42.493Z,82.50
2022-10-08T01:47:13.644Z,82.30
2022-10-08T01:50:06.257Z,82.30
2022-10-08T01:52:38.421Z,82.30
2022-10-08T01:55:13.317Z,83.00
2022-10-08T01:57:41.686Z,83.90
2022-10-08T02:00:13.114Z,83.20
2022-10-08T02:02:41.983Z,83.00
2022-10-08T02:05:09.879Z,82.90
2022-10-08T02:07:41.390Z,83.60
2022-10-08T02:10:18.535Z,85.00
2022-10-08T02:12:46.510Z,83.80
2022-10-08T02:15:17.424Z,87.20
2022-10-08T02:18:10.130Z,83.80
2022-10-08T02:20:56.497Z,84.70
2022-10-08T02:23:29.862Z,83.60
2022-10-08T02:26:03.889Z,83.80
2022-10-08T02:28:34.278Z,84.70
2022-10-08T02:31:31.305Z,83.50
2022-10-08T02:34:06.510Z,83.90
2022-10-08T02:36:43.861Z,84.20
2022-10-08T02:39:14.323Z,85.20
2022-10-08T02:41:46.959Z,83.50
2022-10-08T02:44:46.098Z,84.00
2022-10-08T02:47:17.816Z,84.10
2022-10-08T02:49:51.590Z,84.00
2022-10-08T02:52:21.378Z,84.30
2022-10-08T02:54:50.372Z,84.80
2022-10-08T02:57:21.726Z,84.20
2022-10-08T02:59:50.120Z,85.30
2022-10-08T03:02:27.728Z,84.70
2022-10-08T03:05:01.656Z,85.20
2022-10-08T03:07:35.046Z,84.80
2022-10-08T03:10:07.443Z,84.70
2022-10-08T03:12:35.162Z,85.00
2022-10-08T03:15:02.784Z,87.40
2022-10-08T03:17:36.348Z,87.00
2022-10-08T03:20:06.545Z,85.50
2022-10-08T03:22:34.243Z,85.30
2022-10-08T03:25:01.695Z,87.80
2022-10-08T03:27:29.110Z,87.60
2022-10-08T03:29:59.708Z,86.60
2022-10-08T03:32:27.485Z,86.30
2022-10-08T03:34:54.824Z,87.80
2022-10-08T03:37:22.393Z,87.20
2022-10-08T03:39:49.868Z,85.80
2022-10-08T03:42:17.315Z,86.90
2022-10-08T03:44:44.787Z,87.50
2022-10-08T03:47:12.288Z,87.10
2022-10-08T03:49:40.128Z,87.20
2022-10-08T03:52:07.808Z,86.70
2022-10-08T03:54:36.082Z,87.60
2022-10-08T03:57:04.234Z,86.70
2022-10-08T03:59:31.618Z,85.70
2022-10-08T04:01:58.980Z,87.70
2022-10-08T04:04:29.064Z,87.10
2022-10-08T04:06:56.473Z,85.70
2022-10-08T04:09:23.825Z,88.10
2022-10-08T04:11:51.162Z,85.70
2022-10-08T04:14:18.451Z,85.80
2022-10-08T04:16:48.543Z,87.20
2022-10-08T04:19:19.116Z,91.00
2022-10-08T04:21:48.509Z,90.30
2022-10-08T04:24:23.676Z,89.90
2022-10-08T04:26:51.665Z,86.50
2022-10-08T04:29:19.529Z,91.60
2022-10-08T04:31:52.175Z,90.90
2022-10-08T04:34:20.030Z,90.70
2022-10-08T04:36:57.070Z,91.30
2022-10-08T04:39:27.156Z,85.50
2022-10-08T04:41:54.543Z,88.60
2022-10-08T04:44:22.016Z,87.30
2022-10-08T04:46:52.696Z,88.90
2022-10-08T04:49:23.156Z,90.70
2022-10-08T04:51:51.039Z,90.00
2022-10-08T04:54:28.824Z,91.20
2022-10-08T04:56:57.383Z,91.60
2022-10-08T04:59:25.020Z,90.10
2022-10-08T05:01:54.905Z,89.30
2022-10-08T05:04:23.203Z,86.00
2022-10-08T05:06:51.386Z,86.30
2022-10-08T05:09:18.919Z,86.60
2022-10-08T05:11:46.349Z,88.10
2022-10-08T05:14:14.017Z,86.30
2022-10-08T05:16:41.422Z,86.90
2022-10-08T05:19:09.309Z,86.40
2022-10-08T05:21:36.972Z,87.20
2022-10-08T05:24:08.972Z,89.80
2022-10-08T05:26:57.406Z,86.10
2022-10-08T05:29:26.301Z,87.20
2022-10-08T05:31:53.837Z,88.50
2022-10-08T05:34:21.468Z,89.90
2022-10-08T05:36:48.805Z,88.40
2022-10-08T05:39:16.228Z,89.40
2022-10-08T05:41:43.617Z,88.70
2022-10-08T05:44:12.119Z,88.20
2022-10-08T05:46:40.398Z,91.30
2022-10-08T05:49:13.741Z,89.80
2022-10-08T05:51:41.121Z,87.20
2022-10-08T05:54:08.712Z,89.10
2022-10-08T05:56:36.198Z,89.60
2022-10-08T05:59:03.753Z,90.60
2022-10-08T06:01:33.071Z,89.70
2022-10-08T06:04:08.775Z,86.80
2022-10-08T06:06:39.392Z,86.00
2022-10-08T06:09:08.115Z,86.00
2022-10-08T06:11:37.769Z,85.80
2022-10-08T06:14:07.128Z,86.00
2022-10-08T06:16:35.072Z,86.30
2022-10-08T06:19:03.537Z,91.80
2022-10-08T06:21:32.170Z,87.10
2022-10-08T06:24:01.541Z,88.50
2022-10-08T06:26:35.621Z,86.90
2022-10-08T06:29:08.322Z,85.80
2022-10-08T06:31:36.226Z,85.10
2022-10-08T06:34:05.051Z,88.70
2022-10-08T06:36:33.889Z,85.60
2022-10-08T06:39:07.013Z,86.60
2022-10-08T06:41:35.226Z,87.70
2022-10-08T06:44:08.217Z,88.00
2022-10-08T06:46:35.862Z,85.90
2022-10-08T06:49:06.116Z,87.20
2022-10-08T06:51:34.508Z,85.30
2022-10-08T06:54:07.316Z,88.00
2022-10-08T06:56:37.044Z,88.50
2022-10-08T06:59:05.885Z,86.60
2022-10-08T07:01:35.072Z,85.60
2022-10-08T07:04:03.939Z,87.00
2022-10-08T07:06:31.683Z,85.20
2022-10-08T07:09:01.312Z,88.20
2022-10-08T07:11:30.152Z,86.00
2022-10-08T07:13:58.100Z,85.30
2022-10-08T07:16:27.071Z,85.30
2022-10-08T07:18:57.215Z,85.70
2022-10-08T07:21:24.919Z,84.70
2022-10-08T07:23:53.031Z,88.20
2022-10-08T07:26:24.410Z,90.00
2022-10-08T07:29:01.045Z,85.70
2022-10-08T07:31:31.326Z,85.30
2022-10-08T07:34:05.110Z,85.20
2022-10-08T07:36:32.959Z,86.60
2022-10-08T07:39:05.621Z,88.20
2022-10-08T07:41:33.338Z,84.00
2022-10-08T07:44:03.021Z,86.90
2022-10-08T07:46:33.329Z,85.20
2022-10-08T07:49:04.717Z,84.70
2022-10-08T07:51:33.774Z,85.20
2022-10-08T07:54:02.913Z,85.40
2022-10-08T07:56:31.689Z,84.00
2022-10-08T07:59:00.787Z,86.20
2022-10-08T08:01:30.290Z,84.70
2022-10-08T08:03:59.330Z,84.20
2022-10-08T08:06:27.217Z,84.70
2022-10-08T08:08:54.776Z,87.00
2022-10-08T08:11:24.112Z,85.40
2022-10-08T08:13:52.166Z,83.60
2022-10-08T08:16:27.453Z,83.70
2022-10-08T08:18:57.649Z,84.50
2022-10-08T08:21:30.645Z,83.40
2022-10-08T08:24:02.448Z,83.10
2022-10-08T08:26:33.286Z,83.20
2022-10-08T08:29:03.040Z,83.30
2022-10-08T08:31:37.068Z,83.90
2022-10-08T08:34:07.433Z,82.20
2022-10-08T08:36:37.770Z,82.60
2022-10-08T08:39:07.072Z,81.90
2022-10-08T08:42:05.529Z,82.50
2022-10-08T08:44:44.776Z,81.80
2022-10-08T08:47:38.673Z,81.40
2022-10-08T08:50:23.711Z,81.10
2022-10-08T08:52:54.249Z,80.90
2022-10-08T08:55:32.340Z,80.60
2022-10-08T08:58:25.655Z,80.90
2022-10-08T09:01:09.256Z,83.50
2022-10-08T09:03:59.034Z,79.70
2022-10-08T09:06:29.073Z,79.20
2022-10-08T09:09:10.629Z,78.90
2022-10-08T09:11:39.574Z,78.20
2022-10-08T09:14:47.727Z,81.60
2022-10-08T09:17:19.115Z,77.80
2022-10-08T09:19:48.586Z,79.00
2022-10-08T09:22:25.943Z,78.60
2022-10-08T09:25:03.369Z,77.40
2022-10-08T09:27:56.934Z,77.10
2022-10-08T09:30:29.360Z,75.90
2022-10-08T09:33:01.064Z,79.20
2022-10-08T09:35:28.658Z,75.50
2022-10-08T09:37:56.768Z,77.40
2022-10-08T09:40:26.807Z,77.70
2022-10-08T09:43:16.912Z,75.80
2022-10-08T09:45:49.272Z,75.30
2022-10-08T09:48:28.309Z,76.80
2022-10-08T09:51:02.270Z,78.60
2022-10-08T09:53:43.069Z,80.00
2022-10-08T09:56:12.432Z,79.80
2022-10-08T09:58:56.538Z,78.00
2022-10-08T10:01:25.471Z,79.90
2022-10-08T10:03:58.705Z,78.50
2022-10-08T10:06:35.055Z,79.10
2022-10-08T10:09:24.317Z,78.50
2022-10-08T10:12:16.201Z,77.70
2022-10-08T10:14:48.595Z,79.20
2022-10-08T10:17:36.160Z,78.50
2022-10-08T10:20:24.665Z,77.80
2022-10-08T10:23:12.126Z,77.20
2022-10-08T10:25:58.783Z,76.90
2022-10-08T10:28:47.581Z,76.40
2022-10-08T10:31:30.897Z,76.40
2022-10-08T10:34:02.844Z,76.80
2022-10-08T10:36:37.032Z,76.40
2022-10-08T10:39:26.705Z,78.00
2022-10-08T10:41:54.167Z,78.00
2022-10-08T10:44:29.077Z,79.40
2022-10-08T10:46:59.304Z,80.10
2022-10-08T10:49:35.204Z,77.90
2022-10-08T10:52:11.086Z,78.90
2022-10-08T10:54:58.624Z,77.60
2022-10-08T10:57:57.174Z,76.40
2022-10-08T11:00:31.593Z,75.80
2022-10-08T11:03:30.964Z,75.60
2022-10-08T11:06:18.622Z,75.20
2022-10-08T11:09:02.728Z,75.00
2022-10-08T11:11:44.586Z,74.90
2022-10-08T11:14:21.037Z,74.80
2022-10-08T11:17:21.951Z,75.10
2022-10-08T11:20:16.947Z,75.60
2022-10-08T11:23:04.438Z,74.70
2022-10-08T11:26:14.920Z,74.10
2022-10-08T11:28:56.707Z,78.60
2022-10-08T11:31:43.200Z,75.10
2022-10-08T11:34:39.073Z,73.80
2022-10-08T11:37:20.711Z,72.50
2022-10-08T11:39:51.302Z,72.70
2022-10-08T11:42:31.148Z,76.60
2022-10-08T11:45:24.503Z,73.10
2022-10-08T11:47:59.819Z,72.50
2022-10-08T11:50:36.721Z,74.20
2022-10-08T11:53:10.359Z,71.80
2022-10-08T11:55:38.948Z,75.60
2022-10-08T11:58:22.156Z,71.40
2022-10-08T12:00:53.746Z,69.50
2022-10-08T12:03:28.198Z,70.80
2022-10-08T12:06:12.999Z,69.30
2022-10-08T12:09:07.041Z,70.30
2022-10-08T12:11:40.139Z,69.60
2022-10-08T12:14:17.202Z,69.10
2022-10-08T12:16:47.868Z,68.90
2022-10-08T12:19:36.230Z,71.10
2022-10-08T12:22:16.428Z,67.90
2022-10-08T12:24:49.680Z,68.00
2022-10-08T12:27:17.815Z,69.10
2022-10-08T12:30:06.041Z,67.90
2022-10-08T12:32:42.710Z,67.30
2022-10-08T12:35:25.886Z,71.30
2022-10-08T12:38:25.690Z,71.20
2022-10-08T12:41:05.329Z,66.70
2022-10-08T12:43:43.314Z,67.70
2022-10-08T12:46:20.426Z,70.00
2022-10-08T12:48:54.073Z,67.50
2022-10-08T12:51:36.611Z,67.00
2022-10-08T12:54:04.678Z,65.90
2022-10-08T12:56:33.028Z,66.30
2022-10-08T12:59:04.290Z,67.80
2022-10-08T13:01:33.599Z,65.40
2022-10-08T13:04:17.695Z,66.00
2022-10-08T13:06:46.927Z,64.50
2022-10-08T13:09:25.287Z,64.80
2022-10-08T13:12:02.912Z,65.90
2022-10-08T13:14:37.618Z,64.70
2022-10-08T13:17:06.043Z,64.20
2022-10-08T13:19:36.355Z,63.80
2022-10-08T13:22:24.840Z,63.70
2022-10-08T13:24:53.069Z,63.70
2022-10-08T13:27:27.367Z,63.80
2022-10-08T13:29:56.481Z,66.20
2022-10-08T13:32:30.158Z,63.80
2022-10-08T13:35:03.274Z,63.80
2022-10-08T13:37:41.175Z,64.70
2022-10-08T13:40:11.604Z,64.50
2022-10-08T13:42:47.230Z,66.20
2022-10-08T13:45:25.191Z,65.30
2022-10-08T13:47:53.657Z,62.60
2022-10-08T13:50:24.344Z,62.90
2022-10-08T13:52:54.789Z,63.40
2022-10-08T13:55:29.735Z,63.20
2022-10-08T13:58:00.045Z,63.40
2022-10-08T14:00:28.734Z,63.30
2022-10-08T14:02:56.243Z,63.40
2022-10-08T14:05:24.954Z,64.40
2022-10-08T14:07:58.239Z,62.70
2022-10-08T14:10:26.101Z,62.30
2022-10-08T14:12:53.718Z,62.50
2022-10-08T14:15:21.538Z,63.90
2022-10-08T14:17:50.670Z,66.10
2022-10-08T14:20:18.241Z,65.80
2022-10-08T14:22:46.393Z,67.00
2022-10-08T14:25:25.814Z,64.10
2022-10-08T14:27:53.356Z,63.20
2022-10-08T14:30:23.914Z,65.40
2022-10-08T14:32:51.543Z,66.20
2022-10-08T14:35:19.382Z,64.30
2022-10-08T14:37:47.104Z,66.40
2022-10-08T14:40:21.488Z,65.00
2022-10-08T14:42:50.334Z,63.70
2022-10-08T14:45:18.120Z,64.20
2022-10-08T14:47:45.631Z,64.90
2022-10-08T14:50:13.643Z,65.30
2022-10-08T14:52:44.512Z,65.80
2022-10-08T14:55:12.441Z,66.10
2022-10-08T14:57:39.808Z,66.40
2022-10-08T15:00:07.858Z,65.60
2022-10-08T15:02:35.333Z,63.50
2022-10-08T15:05:02.801Z,64.80
2022-10-08T15:07:30.869Z,65.10
2022-10-08T15:09:58.837Z,65.70
2022-10-08T15:12:26.395Z,64.20
2022-10-08T15:14:53.935Z,68.70
2022-10-08T15:17:21.318Z,65.40
2022-10-08T15:19:48.677Z,66.60
2022-10-08T15:22:16.003Z,65.00
2022-10-08T15:24:43.514Z,65.10
2022-10-08T15:27:10.947Z,66.70
2022-10-08T15:29:38.409Z,66.20
2022-10-08T15:32:06.044Z,67.00
2022-10-08T15:34:33.623Z,67.10
2022-10-08T15:37:01.136Z,69.40
2022-10-08T15:39:35.464Z,66.50
2022-10-08T15:42:04.203Z,67.40
2022-10-08T15:44:32.346Z,67.30
2022-10-08T15:47:07.872Z,69.50
2022-10-08T15:49:40.549Z,65.50
2022-10-08T15:52:13.126Z,66.20
2022-10-08T15:54:41.672Z,67.20
2022-10-08T15:57:14.539Z,67.60
2022-10-08T15:59:42.674Z,68.00
2022-10-08T16:02:27.825Z,71.60
2022-10-08T16:05:00.122Z,72.90
2022-10-08T16:07:27.826Z,71.00
2022-10-08T16:09:55.731Z,72.60
2022-10-08T16:12:24.560Z,70.70
2022-10-08T16:14:52.054Z,70.60
2022-10-08T16:17:19.732Z,71.80
2022-10-08T16:19:47.216Z,72.60
2022-10-08T16:22:18.203Z,71.10
2022-10-08T16:24:52.734Z,74.30
2022-10-08T16:27:20.273Z,67.10
2022-10-08T16:29:53.740Z,71.30
2022-10-08T16:32:24.385Z,74.20
2022-10-08T16:34:54.616Z,71.90
2022-10-08T16:37:22.188Z,73.40
2022-10-08T16:39:49.814Z,70.80
2022-10-08T16:42:17.346Z,73.40
2022-10-08T16:44:44.712Z,71.80
2022-10-08T16:47:12.342Z,70.80
2022-10-08T16:49:40.252Z,73.20
2022-10-08T16:52:08.639Z,69.10
2022-10-08T16:54:39.799Z,68.60
2022-10-08T16:57:07.230Z,70.90
2022-10-08T16:59:34.605Z,71.10
2022-10-08T17:02:03.389Z,71.60
2022-10-08T17:04:36.249Z,71.10
2022-10-08T17:07:03.703Z,70.50
2022-10-08T17:09:36.750Z,70.40
2022-10-08T17:12:04.383Z,71.80
2022-10-08T17:14:36.958Z,72.80
2022-10-08T17:17:13.624Z,73.30
2022-10-08T17:19:53.702Z,75.20
2022-10-08T17:22:24.506Z,72.90
2022-10-08T17:24:52.077Z,71.80
2022-10-08T17:27:19.529Z,72.70
2022-10-08T17:29:48.534Z,73.80
2022-10-08T17:32:18.473Z,72.40
2022-10-08T17:34:48.333Z,74.80
2022-10-08T17:37:15.964Z,76.40
2022-10-08T17:39:43.580Z,75.30
2022-10-08T17:42:11.217Z,73.30
2022-10-08T17:44:41.594Z,71.80
2022-10-08T17:47:09.632Z,77.60
2022-10-08T17:49:44.383Z,74.10
2022-10-08T17:55:42.677Z,71.20
2022-10-08T17:58:18.791Z,71.80
2022-10-08T18:00:48.368Z,71.30
2022-10-08T18:03:17.531Z,75.20
2022-10-08T18:05:58.009Z,73.30
2022-10-08T18:08:29.054Z,75.60
2022-10-08T18:10:56.792Z,71.50
2022-10-08T18:13:25.007Z,76.80
2022-10-08T18:26:37.023Z,72.10
2022-10-08T18:29:39.396Z,74.30
2022-10-08T18:32:12.249Z,77.30
2022-10-08T18:34:42.403Z,80.40
2022-10-08T18:37:10.645Z,83.30
2022-10-08T18:39:38.084Z,72.80
2022-10-08T18:42:05.587Z,73.00
2022-10-08T18:44:33.069Z,75.60
2022-10-08T18:47:05.223Z,75.40
2022-10-08T18:49:33.804Z,77.50
2022-10-08T18:52:01.684Z,78.70
2022-10-08T18:54:29.665Z,77.00
2022-10-08T18:56:59.391Z,77.60
2022-10-08T19:03:01.874Z,73.30
2022-10-08T19:05:29.628Z,72.90
2022-10-08T19:07:57.107Z,78.80
2022-10-08T19:10:24.746Z,77.00
2022-10-08T19:12:52.819Z,76.20
2022-10-08T19:15:20.556Z,80.20
2022-10-08T19:17:59.496Z,81.00
2022-10-08T19:20:27.061Z,77.20
2022-10-08T19:22:54.446Z,75.50
2022-10-08T19:25:21.950Z,75.80
2022-10-08T19:27:49.757Z,76.30
2022-10-08T19:30:23.902Z,75.10
2022-10-08T19:32:52.918Z,76.40
2022-10-08T19:35:20.388Z,75.20
2022-10-08T19:37:48.103Z,78.20
2022-10-08T19:40:20.951Z,81.00
2022-10-08T19:42:53.067Z,77.00
2022-10-08T19:45:20.669Z,80.50
2022-10-08T19:47:49.791Z,78.10
2022-10-08T19:50:17.354Z,77.40
2022-10-08T19:52:48.568Z,76.60
2022-10-08T19:55:18.519Z,81.50
2022-10-08T19:57:46.062Z,76.40
2022-10-08T20:00:14.852Z,80.10
2022-10-08T20:02:42.425Z,76.60
2022-10-08T20:05:10.360Z,81.70
2022-10-08T20:07:46.854Z,75.90
2022-10-08T20:10:16.189Z,82.40
2022-10-08T20:12:44.315Z,77.50
2022-10-08T20:15:11.803Z,77.90
2022-10-08T20:17:39.240Z,77.20
2022-10-08T20:20:28.128Z,78.30
2022-10-08T20:22:54.473Z,79.00
2022-10-08T20:25:30.399Z,78.00
2022-10-08T20:28:00.385Z,82.30
2022-10-08T20:30:39.650Z,81.30
2022-10-08T20:33:09.632Z,77.20
2022-10-08T20:35:37.230Z,78.80
2022-10-08T20:38:04.777Z,80.00
2022-10-08T20:40:32.361Z,80.40
2022-10-08T20:42:59.823Z,79.80
2022-10-08T20:45:27.247Z,78.70
2022-10-08T20:47:54.692Z,80.60
2022-10-08T20:50:22.098Z,80.00
2022-10-08T20:52:50.030Z,79.50
2022-10-08T20:55:19.664Z,83.30
2022-10-08T20:57:47.444Z,77.50
2022-10-08T21:00:16.961Z,83.20
2022-10-08T21:02:44.377Z,80.50
2022-10-08T21:05:11.815Z,81.90
2022-10-08T21:07:39.163Z,78.90
2022-10-08T21:10:07.386Z,78.90
2022-10-08T21:12:34.717Z,77.50
2022-10-08T21:15:02.175Z,79.30
2022-10-08T21:17:29.565Z,79.30
2022-10-08T21:19:56.967Z,79.60
2022-10-08T21:22:24.315Z,79.70
2022-10-08T21:24:51.625Z,79.50
2022-10-08T21:27:19.103Z,79.80
2022-10-08T21:29:46.493Z,81.60
2022-10-08T21:32:16.813Z,79.60
2022-10-08T21:34:44.251Z,79.90
2022-10-08T21:37:13.817Z,80.80
2022-10-08T21:39:41.588Z,82.60
2022-10-08T21:42:09.019Z,80.40
2022-10-08T21:44:36.376Z,80.90
2022-10-08T21:47:03.936Z,81.50
2022-10-08T21:49:31.671Z,81.10
2022-10-08T21:51:59.121Z,80.10
2022-10-08T21:54:26.574Z,80.90
2022-10-08T21:56:53.953Z,79.60
2022-10-08T21:59:21.420Z,78.90
2022-10-08T22:01:51.392Z,79.30
2022-10-08T22:04:24.512Z,79.40
2022-10-08T22:06:53.973Z,80.20
2022-10-08T22:09:23.924Z,80.80
2022-10-08T22:11:52.412Z,79.70
2022-10-08T22:14:20.505Z,80.00
2022-10-08T22:16:48.160Z,81.00
2022-10-08T22:19:16.444Z,80.80
2022-10-08T22:21:44.030Z,81.40
2022-10-08T22:24:11.520Z,82.80
2022-10-08T22:26:42.562Z,81.10
2022-10-08T22:29:10.507Z,81.40
2022-10-08T22:31:38.725Z,79.80
2022-10-08T22:34:06.328Z,80.80
2022-10-08T22:36:37.036Z,81.60
2022-10-08T22:39:04.453Z,79.50
2022-10-08T22:41:32.965Z,82.60
2022-10-08T22:44:01.051Z,80.40
2022-10-08T22:46:36.927Z,79.70
2022-10-08T22:49:07.264Z,80.20
2022-10-08T22:51:35.598Z,81.40
2022-10-08T22:54:03.080Z,80.70
2022-10-08T22:56:31.244Z,83.20
2022-10-08T22:59:00.180Z,82.10
2022-10-08T23:01:29.375Z,80.50
2022-10-08T23:03:57.516Z,82.40
2022-10-08T23:06:27.711Z,80.80
2022-10-08T23:08:57.580Z,81.30
2022-10-08T23:11:25.699Z,81.30
2022-10-08T23:13:55.630Z,85.30
2022-10-08T23:16:24.597Z,81.10
2022-10-08T23:19:06.356Z,81.10
2022-10-08T23:21:35.091Z,81.30
2022-10-08T23:24:03.109Z,81.00
2022-10-08T23:26:31.122Z,83.10
2022-10-08T23:29:00.411Z,83.40
2022-10-08T23:31:35.085Z,82.00
2022-10-08T23:34:03.854Z,82.60
2022-10-08T23:36:34.282Z,81.30
2022-10-08T23:39:02.279Z,82.20
2022-10-08T23:41:29.780Z,81.30
2022-10-08T23:43:57.355Z,84.90
2022-10-08T23:46:26.864Z,83.30
2022-10-08T23:48:55.079Z,81.50
2022-10-08T23:51:23.903Z,84.00
2022-10-08T23:53:52.298Z,82.10
2022-10-08T23:56:20.731Z,81.90
2022-10-08T23:58:48.605Z,81.70
